sensor_id;sensor_type;location;lat;lon;timestamp;P1;durP1;ratioP1;P2;durP2;ratioP2
5026;SDS011;2532;52.480;13.354;2023-07-02T04:01:08;5.47;;;4.97;;
5026;SDS011;2532;52.480;13.354;2023-07-02T04:03:35;8.03;;;5.00;;
5026;SDS011;2532;52.480;13.354;2023-07-02T04:06:02;8.00;;;4.90;;
5026;SDS011;2532;52.480;13.354;2023-07-02T04:08:31;6.23;;;4.43;;
5026;SDS011;2532;52.480;13.354;2023-07-02T04:10:59;8.10;;;4.93;;
5026;SDS011;2532;52.480;13.354;2023-07-02T04:13:26;5.20;;;4.03;;
5026;SDS011;2532;52.480;13.354;2023-07-02T04:15:53;5.63;;;4.53;;
5026;SDS011;2532;52.480;13.354;2023-07-02T04:18:22;5.83;;;4.10;;
5026;SDS011;2532;52.480;13.354;2023-07-02T04:20:49;6.80;;;4.80;;
5026;SDS011;2532;52.480;13.354;2023-07-02T04:23:16;7.77;;;4.73;;
5026;SDS011;2532;52.480;13.354;2023-07-02T04:25:44;8.03;;;4.37;;
5026;SDS011;2532;52.480;13.354;2023-07-02T04:28:13;7.07;;;4.77;;
5026;SDS011;2532;52.480;13.354;2023-07-02T04:30:40;10.23;;;4.67;;
5026;SDS011;2532;52.480;13.354;2023-07-02T04:33:08;8.53;;;4.20;;
5026;SDS011;2532;52.480;13.354;2023-07-02T04:35:41;8.73;;;4.90;;
5026;SDS011;2532;52.480;13.354;2023-07-02T04:38:09;9.10;;;5.33;;
5026;SDS011;2532;52.480;13.354;2023-07-02T04:40:37;7.33;;;4.60;;
5026;SDS011;2532;52.480;13.354;2023-07-02T04:43:07;9.03;;;4.87;;
5026;SDS011;2532;52.480;13.354;2023-07-02T04:45:36;4.87;;;4.30;;
5026;SDS011;2532;52.480;13.354;2023-07-02T04:48:04;5.30;;;4.03;;
5026;SDS011;2532;52.480;13.354;2023-07-02T04:50:32;6.40;;;4.50;;
5026;SDS011;2532;52.480;13.354;2023-07-02T04:53:01;9.20;;;4.70;;
5026;SDS011;2532;52.480;13.354;2023-07-02T04:55:31;5.80;;;4.63;;
5026;SDS011;2532;52.480;13.354;2023-07-02T04:57:58;6.97;;;4.40;;
5026;SDS011;2532;52.480;13.354;2023-07-02T05:00:25;7.80;;;4.60;;
5026;SDS011;2532;52.480;13.354;2023-07-02T05:02:55;6.90;;;4.47;;
5026;SDS011;2532;52.480;13.354;2023-07-02T05:05:22;7.00;;;4.70;;
5026;SDS011;2532;52.480;13.354;2023-07-02T05:07:49;6.40;;;4.20;;
5026;SDS011;2532;52.480;13.354;2023-07-02T05:10:18;5.70;;;4.17;;
5026;SDS011;2532;52.480;13.354;2023-07-02T05:12:46;5.10;;;4.20;;
5026;SDS011;2532;52.480;13.354;2023-07-02T05:15:13;5.33;;;4.43;;
5026;SDS011;2532;52.480;13.354;2023-07-02T05:17:40;5.63;;;4.93;;
5026;SDS011;2532;52.480;13.354;2023-07-02T05:20:08;5.23;;;4.50;;
5026;SDS011;2532;52.480;13.354;2023-07-02T05:22:36;8.07;;;4.93;;
5026;SDS011;2532;52.480;13.354;2023-07-02T05:25:04;6.83;;;4.30;;
5026;SDS011;2532;52.480;13.354;2023-07-02T05:27:33;6.10;;;4.00;;
5026;SDS011;2532;52.480;13.354;2023-07-02T05:30:01;6.50;;;4.30;;
5026;SDS011;2532;52.480;13.354;2023-07-02T05:32:28;5.87;;;3.87;;
5026;SDS011;2532;52.480;13.354;2023-07-02T05:34:57;8.20;;;4.30;;
5026;SDS011;2532;52.480;13.354;2023-07-02T05:37:24;14.00;;;4.90;;
5026;SDS011;2532;52.480;13.354;2023-07-02T05:39:52;6.10;;;4.40;;
5026;SDS011;2532;52.480;13.354;2023-07-02T05:42:19;6.70;;;4.57;;
5026;SDS011;2532;52.480;13.354;2023-07-02T05:44:51;5.63;;;4.40;;
5026;SDS011;2532;52.480;13.354;2023-07-02T05:47:18;5.80;;;4.57;;
5026;SDS011;2532;52.480;13.354;2023-07-02T05:49:45;9.50;;;4.53;;
5026;SDS011;2532;52.480;13.354;2023-07-02T05:52:13;6.10;;;4.00;;
5026;SDS011;2532;52.480;13.354;2023-07-02T05:54:40;12.03;;;5.10;;
5026;SDS011;2532;52.480;13.354;2023-07-02T05:57:07;7.23;;;5.10;;
5026;SDS011;2532;52.480;13.354;2023-07-02T05:59:37;8.57;;;4.67;;
5026;SDS011;2532;52.480;13.354;2023-07-02T06:02:06;9.63;;;4.40;;
5026;SDS011;2532;52.480;13.354;2023-07-02T06:04:33;9.97;;;5.30;;
5026;SDS011;2532;52.480;13.354;2023-07-02T06:07:01;9.73;;;4.27;;
5026;SDS011;2532;52.480;13.354;2023-07-02T06:09:28;6.40;;;4.03;;
5026;SDS011;2532;52.480;13.354;2023-07-02T06:11:56;5.80;;;4.53;;
5026;SDS011;2532;52.480;13.354;2023-07-02T06:14:23;5.27;;;4.10;;
5026;SDS011;2532;52.480;13.354;2023-07-02T06:16:52;7.80;;;4.10;;
5026;SDS011;2532;52.480;13.354;2023-07-02T06:19:24;6.93;;;4.40;;
5026;SDS011;2532;52.480;13.354;2023-07-02T06:21:53;4.03;;;3.33;;
5026;SDS011;2532;52.480;13.354;2023-07-02T06:24:20;7.60;;;3.93;;
5026;SDS011;2532;52.480;13.354;2023-07-02T06:26:48;6.00;;;3.93;;
5026;SDS011;2532;52.480;13.354;2023-07-02T06:29:15;6.63;;;3.57;;
5026;SDS011;2532;52.480;13.354;2023-07-02T06:31:42;5.57;;;3.60;;
5026;SDS011;2532;52.480;13.354;2023-07-02T06:34:09;6.40;;;4.60;;
5026;SDS011;2532;52.480;13.354;2023-07-02T06:36:38;6.57;;;4.13;;
5026;SDS011;2532;52.480;13.354;2023-07-02T06:39:05;4.97;;;3.90;;
5026;SDS011;2532;52.480;13.354;2023-07-02T06:41:35;7.30;;;3.60;;
5026;SDS011;2532;52.480;13.354;2023-07-02T06:44:03;4.53;;;3.73;;
5026;SDS011;2532;52.480;13.354;2023-07-02T06:46:34;11.57;;;4.20;;
5026;SDS011;2532;52.480;13.354;2023-07-02T06:49:01;5.90;;;4.00;;
5026;SDS011;2532;52.480;13.354;2023-07-02T06:51:28;6.27;;;4.40;;
5026;SDS011;2532;52.480;13.354;2023-07-02T06:53:57;5.90;;;4.13;;
5026;SDS011;2532;52.480;13.354;2023-07-02T06:56:27;5.07;;;3.80;;
5026;SDS011;2532;52.480;13.354;2023-07-02T06:58:54;11.50;;;3.80;;
5026;SDS011;2532;52.480;13.354;2023-07-02T07:01:24;5.40;;;4.13;;
5026;SDS011;2532;52.480;13.354;2023-07-02T07:03:52;6.10;;;4.00;;
5026;SDS011;2532;52.480;13.354;2023-07-02T07:06:19;7.47;;;4.60;;
5026;SDS011;2532;52.480;13.354;2023-07-02T07:08:52;6.43;;;4.07;;
5026;SDS011;2532;52.480;13.354;2023-07-02T07:11:21;6.63;;;4.17;;
5026;SDS011;2532;52.480;13.354;2023-07-02T07:13:48;6.03;;;4.57;;
5026;SDS011;2532;52.480;13.354;2023-07-02T07:16:18;4.97;;;3.90;;
5026;SDS011;2532;52.480;13.354;2023-07-02T07:18:45;9.90;;;4.37;;
5026;SDS011;2532;52.480;13.354;2023-07-02T07:21:12;7.70;;;3.90;;
5026;SDS011;2532;52.480;13.354;2023-07-02T07:23:40;7.47;;;4.10;;
5026;SDS011;2532;52.480;13.354;2023-07-02T07:26:07;5.30;;;3.80;;
5026;SDS011;2532;52.480;13.354;2023-07-02T07:28:36;7.70;;;4.17;;
5026;SDS011;2532;52.480;13.354;2023-07-02T07:31:03;4.70;;;3.83;;
5026;SDS011;2532;52.480;13.354;2023-07-02T07:33:30;6.30;;;4.77;;
5026;SDS011;2532;52.480;13.354;2023-07-02T07:35:59;5.63;;;3.60;;
5026;SDS011;2532;52.480;13.354;2023-07-02T07:38:26;6.93;;;4.33;;
5026;SDS011;2532;52.480;13.354;2023-07-02T07:40:54;8.97;;;4.40;;
5026;SDS011;2532;52.480;13.354;2023-07-02T07:43:25;7.80;;;4.30;;
5026;SDS011;2532;52.480;13.354;2023-07-02T07:45:55;8.80;;;4.20;;
5026;SDS011;2532;52.480;13.354;2023-07-02T07:48:23;8.10;;;4.63;;
5026;SDS011;2532;52.480;13.354;2023-07-02T07:50:52;7.63;;;4.07;;
5026;SDS011;2532;52.480;13.354;2023-07-02T07:53:21;5.70;;;3.43;;
5026;SDS011;2532;52.480;13.354;2023-07-02T07:55:48;6.20;;;3.83;;
5026;SDS011;2532;52.480;13.354;2023-07-02T07:58:15;5.33;;;4.00;;
5026;SDS011;2532;52.480;13.354;2023-07-02T08:00:42;5.83;;;3.90;;
5026;SDS011;2532;52.480;13.354;2023-07-02T08:03:10;6.40;;;3.73;;
5026;SDS011;2532;52.480;13.354;2023-07-02T08:05:37;7.30;;;4.10;;
5026;SDS011;2532;52.480;13.354;2023-07-02T08:08:04;6.40;;;3.73;;
5026;SDS011;2532;52.480;13.354;2023-07-02T08:10:33;7.30;;;4.03;;
5026;SDS011;2532;52.480;13.354;2023-07-02T08:13:00;7.27;;;3.83;;
5026;SDS011;2532;52.480;13.354;2023-07-02T08:15:26;5.93;;;3.70;;
5026;SDS011;2532;52.480;13.354;2023-07-02T08:17:53;7.37;;;4.27;;
5026;SDS011;2532;52.480;13.354;2023-07-02T08:20:24;6.70;;;4.30;;
5026;SDS011;2532;52.480;13.354;2023-07-02T08:22:51;7.90;;;4.00;;
5026;SDS011;2532;52.480;13.354;2023-07-02T08:25:18;7.40;;;4.60;;
5026;SDS011;2532;52.480;13.354;2023-07-02T08:27:46;9.23;;;4.43;;
5026;SDS011;2532;52.480;13.354;2023-07-02T08:30:13;8.23;;;4.70;;
5026;SDS011;2532;52.480;13.354;2023-07-02T08:32:40;7.23;;;4.00;;
5026;SDS011;2532;52.480;13.354;2023-07-02T08:35:08;6.53;;;4.57;;
5026;SDS011;2532;52.480;13.354;2023-07-02T08:37:36;13.10;;;5.30;;
5026;SDS011;2532;52.480;13.354;2023-07-02T08:40:04;10.20;;;4.73;;
5026;SDS011;2532;52.480;13.354;2023-07-02T08:42:32;6.43;;;4.20;;
5026;SDS011;2532;52.480;13.354;2023-07-02T08:45:00;6.67;;;4.23;;
5026;SDS011;2532;52.480;13.354;2023-07-02T08:47:28;7.57;;;5.60;;
5026;SDS011;2532;52.480;13.354;2023-07-02T08:49:55;11.50;;;5.83;;
5026;SDS011;2532;52.480;13.354;2023-07-02T08:52:22;10.60;;;5.20;;
5026;SDS011;2532;52.480;13.354;2023-07-02T08:54:50;6.43;;;4.50;;
5026;SDS011;2532;52.480;13.354;2023-07-02T08:57:17;7.17;;;4.20;;
5026;SDS011;2532;52.480;13.354;2023-07-02T08:59:44;7.63;;;4.50;;
5026;SDS011;2532;52.480;13.354;2023-07-02T09:02:11;8.20;;;4.80;;
5026;SDS011;2532;52.480;13.354;2023-07-02T09:04:38;11.33;;;4.90;;
5026;SDS011;2532;52.480;13.354;2023-07-02T09:07:05;7.53;;;5.17;;
5026;SDS011;2532;52.480;13.354;2023-07-02T09:09:33;7.40;;;5.10;;
5026;SDS011;2532;52.480;13.354;2023-07-02T09:12:22;10.50;;;4.70;;
5026;SDS011;2532;52.480;13.354;2023-07-02T09:14:56;8.23;;;4.40;;
5026;SDS011;2532;52.480;13.354;2023-07-02T09:17:27;8.40;;;5.30;;
5026;SDS011;2532;52.480;13.354;2023-07-02T09:19:55;9.90;;;4.60;;
5026;SDS011;2532;52.480;13.354;2023-07-02T09:22:25;8.50;;;5.10;;
5026;SDS011;2532;52.480;13.354;2023-07-02T09:24:52;13.83;;;5.10;;
5026;SDS011;2532;52.480;13.354;2023-07-02T09:27:32;9.10;;;5.30;;
5026;SDS011;2532;52.480;13.354;2023-07-02T09:30:04;7.50;;;4.93;;
5026;SDS011;2532;52.480;13.354;2023-07-02T09:32:35;8.13;;;5.57;;
5026;SDS011;2532;52.480;13.354;2023-07-02T09:35:03;7.83;;;5.23;;
5026;SDS011;2532;52.480;13.354;2023-07-02T09:37:30;8.43;;;5.33;;
5026;SDS011;2532;52.480;13.354;2023-07-02T09:39:58;11.47;;;5.93;;
5026;SDS011;2532;52.480;13.354;2023-07-02T09:42:27;10.83;;;6.13;;
5026;SDS011;2532;52.480;13.354;2023-07-02T09:44:55;10.10;;;6.30;;
5026;SDS011;2532;52.480;13.354;2023-07-02T09:47:24;10.67;;;5.60;;
5026;SDS011;2532;52.480;13.354;2023-07-02T09:49:52;11.53;;;6.07;;
5026;SDS011;2532;52.480;13.354;2023-07-02T09:52:21;11.93;;;5.10;;
5026;SDS011;2532;52.480;13.354;2023-07-02T09:54:49;12.50;;;5.83;;
5026;SDS011;2532;52.480;13.354;2023-07-02T09:57:16;13.40;;;7.63;;
5026;SDS011;2532;52.480;13.354;2023-07-02T09:59:44;13.40;;;5.47;;
5026;SDS011;2532;52.480;13.354;2023-07-02T10:02:12;14.43;;;6.43;;
5026;SDS011;2532;52.480;13.354;2023-07-02T10:04:39;10.70;;;6.70;;
5026;SDS011;2532;52.480;13.354;2023-07-02T10:07:07;10.50;;;6.07;;
5026;SDS011;2532;52.480;13.354;2023-07-02T10:09:34;14.50;;;7.00;;
5026;SDS011;2532;52.480;13.354;2023-07-02T10:12:14;14.37;;;6.80;;
5026;SDS011;2532;52.480;13.354;2023-07-02T10:14:42;13.03;;;7.80;;
5026;SDS011;2532;52.480;13.354;2023-07-02T10:17:11;14.70;;;7.07;;
5026;SDS011;2532;52.480;13.354;2023-07-02T10:19:51;14.37;;;7.00;;
5026;SDS011;2532;52.480;13.354;2023-07-02T10:22:18;16.73;;;9.90;;
5026;SDS011;2532;52.480;13.354;2023-07-02T10:24:53;13.87;;;7.20;;
5026;SDS011;2532;52.480;13.354;2023-07-02T10:27:32;15.20;;;7.90;;
5026;SDS011;2532;52.480;13.354;2023-07-02T10:30:00;13.10;;;6.50;;
5026;SDS011;2532;52.480;13.354;2023-07-02T10:32:30;11.37;;;6.40;;
5026;SDS011;2532;52.480;13.354;2023-07-02T10:34:58;12.27;;;6.90;;
5026;SDS011;2532;52.480;13.354;2023-07-02T10:37:34;19.73;;;7.80;;
5026;SDS011;2532;52.480;13.354;2023-07-02T10:40:02;13.27;;;7.20;;
5026;SDS011;2532;52.480;13.354;2023-07-02T10:42:31;13.73;;;7.00;;
5026;SDS011;2532;52.480;13.354;2023-07-02T10:44:59;18.53;;;7.07;;
5026;SDS011;2532;52.480;13.354;2023-07-02T10:47:27;12.40;;;8.47;;
5026;SDS011;2532;52.480;13.354;2023-07-02T10:49:56;15.83;;;7.17;;
5026;SDS011;2532;52.480;13.354;2023-07-02T10:52:23;16.63;;;8.30;;
5026;SDS011;2532;52.480;13.354;2023-07-02T10:54:50;15.13;;;7.20;;
5026;SDS011;2532;52.480;13.354;2023-07-02T10:57:18;14.60;;;8.43;;
5026;SDS011;2532;52.480;13.354;2023-07-02T10:59:48;12.60;;;6.93;;
5026;SDS011;2532;52.480;13.354;2023-07-02T11:02:15;10.70;;;6.90;;
5026;SDS011;2532;52.480;13.354;2023-07-02T11:04:45;18.63;;;8.20;;
5026;SDS011;2532;52.480;13.354;2023-07-02T11:07:13;13.20;;;7.70;;
5026;SDS011;2532;52.480;13.354;2023-07-02T11:09:49;15.37;;;9.00;;
5026;SDS011;2532;52.480;13.354;2023-07-02T11:12:16;24.57;;;8.20;;
5026;SDS011;2532;52.480;13.354;2023-07-02T11:14:43;20.43;;;8.40;;
5026;SDS011;2532;52.480;13.354;2023-07-02T11:17:10;17.43;;;7.80;;
5026;SDS011;2532;52.480;13.354;2023-07-02T11:19:37;16.00;;;7.63;;
5026;SDS011;2532;52.480;13.354;2023-07-02T11:22:05;16.67;;;7.70;;
5026;SDS011;2532;52.480;13.354;2023-07-02T11:24:33;15.47;;;7.50;;
5026;SDS011;2532;52.480;13.354;2023-07-02T11:27:00;16.40;;;7.67;;
5026;SDS011;2532;52.480;13.354;2023-07-02T11:29:29;23.03;;;10.70;;
5026;SDS011;2532;52.480;13.354;2023-07-02T11:32:04;16.17;;;8.83;;
5026;SDS011;2532;52.480;13.354;2023-07-02T11:34:32;17.10;;;7.33;;
5026;SDS011;2532;52.480;13.354;2023-07-02T11:36:59;14.07;;;8.37;;
5026;SDS011;2532;52.480;13.354;2023-07-02T11:39:27;14.00;;;8.27;;
5026;SDS011;2532;52.480;13.354;2023-07-02T11:41:54;13.33;;;8.10;;
5026;SDS011;2532;52.480;13.354;2023-07-02T11:44:26;18.60;;;8.13;;
5026;SDS011;2532;52.480;13.354;2023-07-02T11:46:53;15.20;;;8.27;;
5026;SDS011;2532;52.480;13.354;2023-07-02T11:49:22;20.83;;;8.97;;
5026;SDS011;2532;52.480;13.354;2023-07-02T11:51:49;17.60;;;8.07;;
5026;SDS011;2532;52.480;13.354;2023-07-02T11:54:16;13.37;;;7.50;;
5026;SDS011;2532;52.480;13.354;2023-07-02T11:56:45;15.43;;;7.87;;
5026;SDS011;2532;52.480;13.354;2023-07-02T11:59:14;19.97;;;7.87;;
5026;SDS011;2532;52.480;13.354;2023-07-02T12:01:41;22.80;;;8.90;;
5026;SDS011;2532;52.480;13.354;2023-07-02T12:04:09;22.23;;;9.47;;
5026;SDS011;2532;52.480;13.354;2023-07-02T12:06:39;22.73;;;9.10;;
5026;SDS011;2532;52.480;13.354;2023-07-02T12:09:06;13.83;;;8.13;;
5026;SDS011;2532;52.480;13.354;2023-07-02T12:11:34;17.07;;;7.73;;
5026;SDS011;2532;52.480;13.354;2023-07-02T12:14:03;15.60;;;8.70;;
5026;SDS011;2532;52.480;13.354;2023-07-02T12:16:30;14.70;;;8.03;;
5026;SDS011;2532;52.480;13.354;2023-07-02T12:18:57;21.87;;;8.33;;
5026;SDS011;2532;52.480;13.354;2023-07-02T12:21:24;16.80;;;7.57;;
5026;SDS011;2532;52.480;13.354;2023-07-02T12:23:51;15.77;;;7.60;;
5026;SDS011;2532;52.480;13.354;2023-07-02T12:26:18;22.53;;;8.87;;
5026;SDS011;2532;52.480;13.354;2023-07-02T12:28:45;11.63;;;7.47;;
5026;SDS011;2532;52.480;13.354;2023-07-02T12:31:14;14.60;;;7.37;;
5026;SDS011;2532;52.480;13.354;2023-07-02T12:33:44;17.33;;;9.00;;
5026;SDS011;2532;52.480;13.354;2023-07-02T12:36:13;19.53;;;7.80;;
5026;SDS011;2532;52.480;13.354;2023-07-02T12:38:40;20.50;;;8.90;;
5026;SDS011;2532;52.480;13.354;2023-07-02T12:41:07;17.80;;;7.83;;
5026;SDS011;2532;52.480;13.354;2023-07-02T12:43:34;19.40;;;7.47;;
5026;SDS011;2532;52.480;13.354;2023-07-02T12:46:02;19.30;;;7.60;;
5026;SDS011;2532;52.480;13.354;2023-07-02T12:48:30;17.53;;;8.80;;
5026;SDS011;2532;52.480;13.354;2023-07-02T12:51:00;18.77;;;7.90;;
5026;SDS011;2532;52.480;13.354;2023-07-02T12:53:27;20.70;;;9.10;;
5026;SDS011;2532;52.480;13.354;2023-07-02T12:55:54;13.70;;;8.00;;
5026;SDS011;2532;52.480;13.354;2023-07-02T12:58:21;17.60;;;8.97;;
5026;SDS011;2532;52.480;13.354;2023-07-02T13:00:48;22.53;;;9.77;;
5026;SDS011;2532;52.480;13.354;2023-07-02T13:03:16;16.13;;;8.57;;
5026;SDS011;2532;52.480;13.354;2023-07-02T13:05:45;14.73;;;7.93;;
5026;SDS011;2532;52.480;13.354;2023-07-02T13:08:12;17.80;;;8.50;;
5026;SDS011;2532;52.480;13.354;2023-07-02T13:10:39;15.37;;;7.60;;
5026;SDS011;2532;52.480;13.354;2023-07-02T13:13:06;18.20;;;8.23;;
5026;SDS011;2532;52.480;13.354;2023-07-02T13:15:33;14.27;;;7.67;;
5026;SDS011;2532;52.480;13.354;2023-07-02T13:18:00;16.73;;;7.20;;
5026;SDS011;2532;52.480;13.354;2023-07-02T13:20:28;16.33;;;8.50;;
5026;SDS011;2532;52.480;13.354;2023-07-02T13:22:56;19.23;;;8.70;;
5026;SDS011;2532;52.480;13.354;2023-07-02T13:25:24;21.47;;;9.13;;
5026;SDS011;2532;52.480;13.354;2023-07-02T13:27:51;22.77;;;8.50;;
5026;SDS011;2532;52.480;13.354;2023-07-02T13:30:17;17.70;;;8.37;;
5026;SDS011;2532;52.480;13.354;2023-07-02T13:32:45;14.00;;;8.13;;
5026;SDS011;2532;52.480;13.354;2023-07-02T13:35:12;16.20;;;8.30;;
5026;SDS011;2532;52.480;13.354;2023-07-02T13:37:39;17.83;;;9.33;;
5026;SDS011;2532;52.480;13.354;2023-07-02T13:40:08;18.80;;;9.10;;
5026;SDS011;2532;52.480;13.354;2023-07-02T13:42:38;17.50;;;8.50;;
5026;SDS011;2532;52.480;13.354;2023-07-02T13:45:05;13.43;;;7.93;;
5026;SDS011;2532;52.480;13.354;2023-07-02T13:47:33;14.23;;;7.83;;
5026;SDS011;2532;52.480;13.354;2023-07-02T13:50:00;15.00;;;8.23;;
5026;SDS011;2532;52.480;13.354;2023-07-02T13:52:28;17.40;;;7.67;;
5026;SDS011;2532;52.480;13.354;2023-07-02T13:54:55;17.50;;;8.40;;
5026;SDS011;2532;52.480;13.354;2023-07-02T13:57:25;19.77;;;8.70;;
5026;SDS011;2532;52.480;13.354;2023-07-02T13:59:54;12.20;;;7.40;;
5026;SDS011;2532;52.480;13.354;2023-07-02T14:02:22;15.13;;;8.10;;
5026;SDS011;2532;52.480;13.354;2023-07-02T14:04:49;15.67;;;7.80;;
5026;SDS011;2532;52.480;13.354;2023-07-02T14:07:16;15.87;;;8.73;;
5026;SDS011;2532;52.480;13.354;2023-07-02T14:09:43;16.63;;;7.63;;
5026;SDS011;2532;52.480;13.354;2023-07-02T14:12:10;15.70;;;7.67;;
5026;SDS011;2532;52.480;13.354;2023-07-02T14:14:37;13.60;;;8.03;;
5026;SDS011;2532;52.480;13.354;2023-07-02T14:17:08;15.97;;;8.87;;
5026;SDS011;2532;52.480;13.354;2023-07-02T14:19:34;16.23;;;8.23;;
5026;SDS011;2532;52.480;13.354;2023-07-02T14:22:01;21.90;;;9.13;;
5026;SDS011;2532;52.480;13.354;2023-07-02T14:24:29;23.90;;;9.70;;
5026;SDS011;2532;52.480;13.354;2023-07-02T14:26:56;13.63;;;8.20;;
5026;SDS011;2532;52.480;13.354;2023-07-02T14:29:23;14.57;;;7.80;;
5026;SDS011;2532;52.480;13.354;2023-07-02T14:31:50;17.60;;;8.90;;
5026;SDS011;2532;52.480;13.354;2023-07-02T14:34:18;90.67;;;36.90;;
5026;SDS011;2532;52.480;13.354;2023-07-02T14:36:46;37.20;;;17.13;;
5026;SDS011;2532;52.480;13.354;2023-07-02T14:39:13;23.60;;;10.50;;
5026;SDS011;2532;52.480;13.354;2023-07-02T14:41:39;48.13;;;15.27;;
5026;SDS011;2532;52.480;13.354;2023-07-02T14:44:06;73.20;;;36.40;;
5026;SDS011;2532;52.480;13.354;2023-07-02T14:46:33;115.30;;;55.80;;
5026;SDS011;2532;52.480;13.354;2023-07-02T14:49:00;48.87;;;23.30;;
5026;SDS011;2532;52.480;13.354;2023-07-02T14:51:29;26.40;;;13.03;;
5026;SDS011;2532;52.480;13.354;2023-07-02T14:53:56;31.53;;;11.27;;
5026;SDS011;2532;52.480;13.354;2023-07-02T14:56:23;26.30;;;11.63;;
5026;SDS011;2532;52.480;13.354;2023-07-02T14:58:50;16.70;;;8.40;;
5026;SDS011;2532;52.480;13.354;2023-07-02T15:01:17;13.43;;;7.63;;
5026;SDS011;2532;52.480;13.354;2023-07-02T15:03:44;14.50;;;7.57;;
5026;SDS011;2532;52.480;13.354;2023-07-02T15:06:12;15.23;;;9.20;;
5026;SDS011;2532;52.480;13.354;2023-07-02T15:08:42;20.47;;;10.93;;
5026;SDS011;2532;52.480;13.354;2023-07-02T15:11:10;15.57;;;8.27;;
5026;SDS011;2532;52.480;13.354;2023-07-02T15:13:38;19.33;;;8.30;;
5026;SDS011;2532;52.480;13.354;2023-07-02T15:16:06;16.80;;;9.50;;
5026;SDS011;2532;52.480;13.354;2023-07-02T15:18:35;13.47;;;7.90;;
5026;SDS011;2532;52.480;13.354;2023-07-02T15:21:03;15.80;;;8.97;;
5026;SDS011;2532;52.480;13.354;2023-07-02T15:23:30;15.57;;;8.67;;
5026;SDS011;2532;52.480;13.354;2023-07-02T15:26:00;16.50;;;8.30;;
5026;SDS011;2532;52.480;13.354;2023-07-02T15:28:28;14.90;;;7.13;;
5026;SDS011;2532;52.480;13.354;2023-07-02T15:30:56;17.40;;;8.00;;
5026;SDS011;2532;52.480;13.354;2023-07-02T15:33:25;13.77;;;7.57;;
5026;SDS011;2532;52.480;13.354;2023-07-02T15:35:52;16.20;;;8.20;;
5026;SDS011;2532;52.480;13.354;2023-07-02T15:38:19;18.57;;;8.60;;
5026;SDS011;2532;52.480;13.354;2023-07-02T15:40:47;14.67;;;7.57;;
5026;SDS011;2532;52.480;13.354;2023-07-02T15:43:16;16.03;;;6.90;;
5026;SDS011;2532;52.480;13.354;2023-07-02T15:45:43;15.90;;;7.67;;
5026;SDS011;2532;52.480;13.354;2023-07-02T15:48:10;17.93;;;7.97;;
5026;SDS011;2532;52.480;13.354;2023-07-02T15:50:37;13.60;;;9.33;;
5026;SDS011;2532;52.480;13.354;2023-07-02T15:53:04;16.93;;;9.83;;
5026;SDS011;2532;52.480;13.354;2023-07-02T15:55:33;13.90;;;8.80;;
5026;SDS011;2532;52.480;13.354;2023-07-02T15:58:00;16.93;;;8.60;;
5026;SDS011;2532;52.480;13.354;2023-07-02T16:00:29;11.10;;;6.80;;
5026;SDS011;2532;52.480;13.354;2023-07-02T16:02:56;10.63;;;7.20;;
5026;SDS011;2532;52.480;13.354;2023-07-02T16:05:22;12.67;;;6.37;;
5026;SDS011;2532;52.480;13.354;2023-07-02T16:07:49;13.40;;;6.87;;
5026;SDS011;2532;52.480;13.354;2023-07-02T16:10:17;13.33;;;8.00;;
5026;SDS011;2532;52.480;13.354;2023-07-02T16:12:44;14.43;;;7.20;;
5026;SDS011;2532;52.480;13.354;2023-07-02T16:15:11;17.20;;;8.87;;
5026;SDS011;2532;52.480;13.354;2023-07-02T16:17:39;15.40;;;6.80;;
5026;SDS011;2532;52.480;13.354;2023-07-02T16:20:06;16.73;;;7.63;;
5026;SDS011;2532;52.480;13.354;2023-07-02T16:22:34;11.33;;;6.93;;
5026;SDS011;2532;52.480;13.354;2023-07-02T16:25:01;15.53;;;6.93;;
5026;SDS011;2532;52.480;13.354;2023-07-02T16:27:28;15.40;;;7.40;;
5026;SDS011;2532;52.480;13.354;2023-07-02T16:29:56;11.17;;;6.33;;
5026;SDS011;2532;52.480;13.354;2023-07-02T16:32:23;14.30;;;6.90;;
5026;SDS011;2532;52.480;13.354;2023-07-02T16:34:53;11.57;;;6.10;;
5026;SDS011;2532;52.480;13.354;2023-07-02T16:37:20;17.07;;;8.23;;
5026;SDS011;2532;52.480;13.354;2023-07-02T16:39:47;10.20;;;6.90;;
5026;SDS011;2532;52.480;13.354;2023-07-02T16:42:13;13.07;;;7.70;;
5026;SDS011;2532;52.480;13.354;2023-07-02T16:44:40;11.00;;;6.50;;
5026;SDS011;2532;52.480;13.354;2023-07-02T16:47:08;11.93;;;6.40;;
5026;SDS011;2532;52.480;13.354;2023-07-02T16:49:34;14.33;;;6.77;;
5026;SDS011;2532;52.480;13.354;2023-07-02T16:52:03;11.73;;;6.50;;
5026;SDS011;2532;52.480;13.354;2023-07-02T16:54:31;11.30;;;6.40;;
5026;SDS011;2532;52.480;13.354;2023-07-02T16:56:58;10.50;;;6.83;;
5026;SDS011;2532;52.480;13.354;2023-07-02T16:59:28;14.07;;;8.07;;
5026;SDS011;2532;52.480;13.354;2023-07-02T17:02:02;13.40;;;6.30;;
5026;SDS011;2532;52.480;13.354;2023-07-02T17:04:31;13.63;;;6.73;;
5026;SDS011;2532;52.480;13.354;2023-07-02T17:06:59;14.40;;;7.27;;
5026;SDS011;2532;52.480;13.354;2023-07-02T17:09:29;13.30;;;6.40;;
5026;SDS011;2532;52.480;13.354;2023-07-02T17:11:58;15.53;;;6.93;;
5026;SDS011;2532;52.480;13.354;2023-07-02T17:14:25;10.80;;;6.10;;
5026;SDS011;2532;52.480;13.354;2023-07-02T17:16:56;17.40;;;7.97;;
5026;SDS011;2532;52.480;13.354;2023-07-02T17:19:25;12.37;;;7.20;;
5026;SDS011;2532;52.480;13.354;2023-07-02T17:21:54;15.90;;;6.80;;
5026;SDS011;2532;52.480;13.354;2023-07-02T17:24:23;11.47;;;7.57;;
5026;SDS011;2532;52.480;13.354;2023-07-02T17:26:56;14.30;;;7.20;;
5026;SDS011;2532;52.480;13.354;2023-07-02T17:29:24;10.17;;;6.53;;
5026;SDS011;2532;52.480;13.354;2023-07-02T17:31:52;11.83;;;6.80;;
5026;SDS011;2532;52.480;13.354;2023-07-02T17:34:20;15.87;;;6.97;;
5026;SDS011;2532;52.480;13.354;2023-07-02T17:36:49;11.37;;;6.50;;
5026;SDS011;2532;52.480;13.354;2023-07-02T17:39:18;11.27;;;5.77;;
5026;SDS011;2532;52.480;13.354;2023-07-02T17:41:45;12.97;;;6.87;;
5026;SDS011;2532;52.480;13.354;2023-07-02T17:44:15;13.13;;;6.43;;
5026;SDS011;2532;52.480;13.354;2023-07-02T17:46:48;13.70;;;8.60;;
5026;SDS011;2532;52.480;13.354;2023-07-02T17:49:15;12.50;;;8.07;;
5026;SDS011;2532;52.480;13.354;2023-07-02T17:51:42;13.80;;;6.60;;
5026;SDS011;2532;52.480;13.354;2023-07-02T17:54:09;12.20;;;6.70;;
5026;SDS011;2532;52.480;13.354;2023-07-02T17:56:36;12.07;;;6.30;;
5026;SDS011;2532;52.480;13.354;2023-07-02T17:59:03;11.00;;;6.33;;
5026;SDS011;2532;52.480;13.354;2023-07-02T18:01:39;16.30;;;7.47;;
5026;SDS011;2532;52.480;13.354;2023-07-02T18:04:06;13.13;;;8.37;;
5026;SDS011;2532;52.480;13.354;2023-07-02T18:06:33;9.17;;;5.70;;
5026;SDS011;2532;52.480;13.354;2023-07-02T18:09:00;12.83;;;6.80;;
5026;SDS011;2532;52.480;13.354;2023-07-02T18:11:29;14.50;;;7.50;;
5026;SDS011;2532;52.480;13.354;2023-07-02T18:13:56;17.70;;;8.33;;
5026;SDS011;2532;52.480;13.354;2023-07-02T18:16:23;21.80;;;9.60;;
5026;SDS011;2532;52.480;13.354;2023-07-02T18:18:52;13.00;;;8.20;;
5026;SDS011;2532;52.480;13.354;2023-07-02T18:21:19;15.33;;;6.60;;
5026;SDS011;2532;52.480;13.354;2023-07-02T18:23:46;14.23;;;6.93;;
5026;SDS011;2532;52.480;13.354;2023-07-02T18:26:13;15.60;;;7.17;;
5026;SDS011;2532;52.480;13.354;2023-07-02T18:28:40;11.87;;;6.83;;
5026;SDS011;2532;52.480;13.354;2023-07-02T18:31:08;12.37;;;7.27;;
5026;SDS011;2532;52.480;13.354;2023-07-02T18:33:35;15.83;;;6.77;;
5026;SDS011;2532;52.480;13.354;2023-07-02T18:36:05;13.53;;;6.47;;
5026;SDS011;2532;52.480;13.354;2023-07-02T18:38:36;11.03;;;6.90;;
5026;SDS011;2532;52.480;13.354;2023-07-02T18:41:04;16.07;;;7.27;;
5026;SDS011;2532;52.480;13.354;2023-07-02T18:43:33;14.03;;;7.20;;
5026;SDS011;2532;52.480;13.354;2023-07-02T18:46:00;14.60;;;7.50;;
5026;SDS011;2532;52.480;13.354;2023-07-02T18:48:27;15.07;;;6.70;;
5026;SDS011;2532;52.480;13.354;2023-07-02T18:50:54;16.30;;;8.30;;
5026;SDS011;2532;52.480;13.354;2023-07-02T18:53:23;11.93;;;7.30;;
5026;SDS011;2532;52.480;13.354;2023-07-02T18:55:54;11.50;;;6.93;;
5026;SDS011;2532;52.480;13.354;2023-07-02T18:58:22;10.80;;;6.10;;